Terminal Aerodrome Forecast
Issued by NWS

Home | Current Version | Previous Version | Text Only | Print | Product List | Glossary On
Versions: 1 2 3 4 5 6 7 8 9 10 11 12 13 14
000
FTUS43 KGRB 010500
TAFMTW
TAF
KMTW 010539Z 0106/0206 09003KT P6SM OVC009
      TEMPO 0106/0110 5SM -DZ BR BKN005
     FM011000 09003KT 4SM -DZ BR OVC005
     FM011500 13007KT P6SM BKN010
     FM012000 14008KT P6SM SCT030 BKN250
     FM020200 15006KT 5SM BR SCT007 OVC014
      TEMPO 0203/0206 2SM -RA BR BKN007=

USA.gov is the U.S. government's official web portal to all federal, state and local government web resources and services.